sensor_id;sensor_type;location;lat;lon;timestamp;pressure;altitude;pressure_sealevel;temperature;humidity
69909;BME280;57190;47.918;8.112;2022-12-11T00:02:17;89857.94;;;-5.90;75.41
69909;BME280;57190;47.918;8.112;2022-12-11T00:04:43;89858.53;;;-5.88;75.44
69909;BME280;57190;47.918;8.112;2022-12-11T00:07:15;89851.97;;;-5.84;75.71
69909;BME280;57190;47.918;8.112;2022-12-11T00:09:42;89858.00;;;-5.77;75.85
69909;BME280;57190;47.918;8.112;2022-12-11T00:12:07;89860.75;;;-5.78;76.73
69909;BME280;57190;47.918;8.112;2022-12-11T00:14:32;89858.81;;;-5.70;75.85
69909;BME280;57190;47.918;8.112;2022-12-11T00:16:58;89850.59;;;-5.73;76.31
69909;BME280;57190;47.918;8.112;2022-12-11T00:19:23;89848.78;;;-5.73;75.84
69909;BME280;57190;47.918;8.112;2022-12-11T00:21:49;89839.97;;;-5.78;76.03
69909;BME280;57190;47.918;8.112;2022-12-11T00:24:14;89842.75;;;-5.93;76.11
69909;BME280;57190;47.918;8.112;2022-12-11T00:26:40;89843.94;;;-6.03;75.71
69909;BME280;57190;47.918;8.112;2022-12-11T00:29:05;89849.69;;;-6.14;75.96
69909;BME280;57190;47.918;8.112;2022-12-11T00:31:33;89851.81;;;-6.24;76.17
69909;BME280;57190;47.918;8.112;2022-12-11T00:34:00;89854.56;;;-6.33;75.65
69909;BME280;57190;47.918;8.112;2022-12-11T00:36:27;89859.56;;;-6.38;75.56
69909;BME280;57190;47.918;8.112;2022-12-11T00:38:53;89853.88;;;-6.55;75.88
69909;BME280;57190;47.918;8.112;2022-12-11T00:41:19;89860.06;;;-6.56;75.98
69909;BME280;57190;47.918;8.112;2022-12-11T00:43:45;89853.69;;;-6.53;75.39
69909;BME280;57190;47.918;8.112;2022-12-11T00:46:11;89853.84;;;-6.61;74.88
69909;BME280;57190;47.918;8.112;2022-12-11T00:48:36;89857.78;;;-6.66;74.87
69909;BME280;57190;47.918;8.112;2022-12-11T00:51:02;89857.00;;;-6.66;74.68
69909;BME280;57190;47.918;8.112;2022-12-11T00:53:27;89864.81;;;-6.59;75.90
69909;BME280;57190;47.918;8.112;2022-12-11T00:55:53;89865.56;;;-6.66;76.20
69909;BME280;57190;47.918;8.112;2022-12-11T00:58:19;89868.00;;;-6.57;76.35
69909;BME280;57190;47.918;8.112;2022-12-11T01:00:44;89874.00;;;-6.57;75.75
69909;BME280;57190;47.918;8.112;2022-12-11T01:03:12;89876.47;;;-6.49;76.51
69909;BME280;57190;47.918;8.112;2022-12-11T01:05:38;89875.84;;;-6.51;76.24
69909;BME280;57190;47.918;8.112;2022-12-11T01:08:04;89868.00;;;-6.57;74.71
69909;BME280;57190;47.918;8.112;2022-12-11T01:10:30;89862.41;;;-6.61;75.95
69909;BME280;57190;47.918;8.112;2022-12-11T01:12:59;89865.97;;;-6.62;75.71
69909;BME280;57190;47.918;8.112;2022-12-11T01:15:30;89870.16;;;-6.68;75.10
69909;BME280;57190;47.918;8.112;2022-12-11T01:17:56;89868.31;;;-6.74;75.32
69909;BME280;57190;47.918;8.112;2022-12-11T01:20:23;89868.63;;;-6.84;74.81
69909;BME280;57190;47.918;8.112;2022-12-11T01:22:57;89874.44;;;-6.82;75.47
69909;BME280;57190;47.918;8.112;2022-12-11T01:25:23;89874.88;;;-6.78;75.71
69909;BME280;57190;47.918;8.112;2022-12-11T01:27:50;89871.88;;;-6.75;75.75
69909;BME280;57190;47.918;8.112;2022-12-11T01:30:16;89886.16;;;-6.64;76.91
69909;BME280;57190;47.918;8.112;2022-12-11T01:32:42;89885.00;;;-6.55;76.64
69909;BME280;57190;47.918;8.112;2022-12-11T01:35:08;89887.78;;;-6.56;76.35
69909;BME280;57190;47.918;8.112;2022-12-11T01:37:34;89891.63;;;-6.52;76.41
69909;BME280;57190;47.918;8.112;2022-12-11T01:40:00;89897.03;;;-6.47;75.54
69909;BME280;57190;47.918;8.112;2022-12-11T01:42:26;89899.28;;;-6.37;75.82
69909;BME280;57190;47.918;8.112;2022-12-11T01:45:21;89903.72;;;-6.24;74.97
69909;BME280;57190;47.918;8.112;2022-12-11T01:47:48;89904.19;;;-6.14;76.08
69909;BME280;57190;47.918;8.112;2022-12-11T01:50:15;89910.84;;;-5.98;76.19
69909;BME280;57190;47.918;8.112;2022-12-11T01:52:42;89909.50;;;-5.87;75.79
69909;BME280;57190;47.918;8.112;2022-12-11T01:55:09;89910.53;;;-5.81;75.72
69909;BME280;57190;47.918;8.112;2022-12-11T01:57:39;89910.53;;;-5.81;76.44
69909;BME280;57190;47.918;8.112;2022-12-11T02:00:06;89911.13;;;-5.79;76.43
69909;BME280;57190;47.918;8.112;2022-12-11T02:02:32;89906.34;;;-5.76;75.82
69909;BME280;57190;47.918;8.112;2022-12-11T02:05:01;89903.56;;;-5.74;76.01
69909;BME280;57190;47.918;8.112;2022-12-11T02:07:28;89907.34;;;-5.70;75.97
69909;BME280;57190;47.918;8.112;2022-12-11T02:09:54;89910.78;;;-5.70;75.83
69909;BME280;57190;47.918;8.112;2022-12-11T02:15:30;89910.41;;;-5.60;76.06
69909;BME280;57190;47.918;8.112;2022-12-11T02:18:10;89918.22;;;-5.53;76.00
69909;BME280;57190;47.918;8.112;2022-12-11T02:29:12;89916.25;;;-5.51;75.39
69909;BME280;57190;47.918;8.112;2022-12-11T02:32:00;89912.03;;;-5.52;75.39
69909;BME280;57190;47.918;8.112;2022-12-11T02:34:31;89909.59;;;-5.54;75.64
69909;BME280;57190;47.918;8.112;2022-12-11T02:37:03;89906.84;;;-5.52;75.70
69909;BME280;57190;47.918;8.112;2022-12-11T02:39:30;89906.66;;;-5.44;76.20
69909;BME280;57190;47.918;8.112;2022-12-11T02:41:58;89908.44;;;-5.44;76.09
69909;BME280;57190;47.918;8.112;2022-12-11T02:44:28;89911.03;;;-5.44;76.01
69909;BME280;57190;47.918;8.112;2022-12-11T02:46:56;89916.03;;;-5.49;75.67
69909;BME280;57190;47.918;8.112;2022-12-11T02:49:23;89924.63;;;-5.56;75.38
69909;BME280;57190;47.918;8.112;2022-12-11T02:51:50;89919.38;;;-5.62;74.99
69909;BME280;57190;47.918;8.112;2022-12-11T02:54:24;89919.75;;;-5.65;75.15
69909;BME280;57190;47.918;8.112;2022-12-11T02:57:16;89925.56;;;-5.63;74.54
69909;BME280;57190;47.918;8.112;2022-12-11T02:59:44;89914.41;;;-5.64;74.45
69909;BME280;57190;47.918;8.112;2022-12-11T03:02:11;89913.56;;;-5.64;74.68
69909;BME280;57190;47.918;8.112;2022-12-11T03:04:37;89915.75;;;-5.68;74.79
69909;BME280;57190;47.918;8.112;2022-12-11T03:07:07;89910.19;;;-5.65;74.82
69909;BME280;57190;47.918;8.112;2022-12-11T03:09:41;89904.19;;;-5.65;74.74
69909;BME280;57190;47.918;8.112;2022-12-11T03:12:09;89903.38;;;-5.66;74.56
69909;BME280;57190;47.918;8.112;2022-12-11T03:14:37;89906.78;;;-5.65;75.08
69909;BME280;57190;47.918;8.112;2022-12-11T03:17:13;89916.00;;;-5.56;75.03
69909;BME280;57190;47.918;8.112;2022-12-11T03:20:04;89908.81;;;-5.54;74.93
69909;BME280;57190;47.918;8.112;2022-12-11T03:22:46;89909.03;;;-5.56;74.61
69909;BME280;57190;47.918;8.112;2022-12-11T03:25:22;89909.59;;;-5.54;74.96
69909;BME280;57190;47.918;8.112;2022-12-11T03:27:57;89902.44;;;-5.52;74.35
69909;BME280;57190;47.918;8.112;2022-12-11T03:30:24;89908.22;;;-5.56;74.12
69909;BME280;57190;47.918;8.112;2022-12-11T03:33:04;89913.59;;;-5.58;74.21
69909;BME280;57190;47.918;8.112;2022-12-11T03:35:41;89909.03;;;-5.56;74.30
69909;BME280;57190;47.918;8.112;2022-12-11T03:38:12;89910.03;;;-5.57;74.42
69909;BME280;57190;47.918;8.112;2022-12-11T03:40:42;89919.19;;;-5.61;74.40
69909;BME280;57190;47.918;8.112;2022-12-11T03:43:10;89912.38;;;-5.69;74.25
69909;BME280;57190;47.918;8.112;2022-12-11T03:45:37;89913.94;;;-5.74;74.00
69909;BME280;57190;47.918;8.112;2022-12-11T03:48:04;89908.53;;;-5.79;73.71
69909;BME280;57190;47.918;8.112;2022-12-11T03:50:32;89915.72;;;-5.81;73.84
69909;BME280;57190;47.918;8.112;2022-12-11T03:52:59;89923.09;;;-5.85;73.70
69909;BME280;57190;47.918;8.112;2022-12-11T03:55:26;89917.06;;;-5.92;73.99
69909;BME280;57190;47.918;8.112;2022-12-11T03:57:53;89909.03;;;-5.97;74.13
69909;BME280;57190;47.918;8.112;2022-12-11T04:00:20;89916.25;;;-6.00;74.70
69909;BME280;57190;47.918;8.112;2022-12-11T04:02:46;89908.03;;;-6.03;73.98
69909;BME280;57190;47.918;8.112;2022-12-11T04:05:32;89914.22;;;-6.11;73.69
69909;BME280;57190;47.918;8.112;2022-12-11T04:07:57;89915.72;;;-6.23;74.07
69909;BME280;57190;47.918;8.112;2022-12-11T04:10:23;89915.31;;;-6.27;74.75
69909;BME280;57190;47.918;8.112;2022-12-11T04:12:48;89914.84;;;-6.37;73.69
69909;BME280;57190;47.918;8.112;2022-12-11T04:15:14;89920.03;;;-6.37;74.55
69909;BME280;57190;47.918;8.112;2022-12-11T04:17:39;89917.00;;;-6.48;74.64
69909;BME280;57190;47.918;8.112;2022-12-11T04:20:23;89916.56;;;-6.51;73.85
69909;BME280;57190;47.918;8.112;2022-12-11T04:23:12;89919.34;;;-6.53;73.58
69909;BME280;57190;47.918;8.112;2022-12-11T04:26:08;89911.38;;;-6.51;74.00
69909;BME280;57190;47.918;8.112;2022-12-11T04:28:34;89915.06;;;-6.67;74.75
69909;BME280;57190;47.918;8.112;2022-12-11T04:31:00;89904.25;;;-6.71;74.99
69909;BME280;57190;47.918;8.112;2022-12-11T04:33:26;89901.47;;;-6.69;74.33
69909;BME280;57190;47.918;8.112;2022-12-11T04:35:51;89903.41;;;-6.78;73.27
69909;BME280;57190;47.918;8.112;2022-12-11T04:38:17;89895.63;;;-6.78;74.74
69909;BME280;57190;47.918;8.112;2022-12-11T04:40:42;89900.31;;;-6.88;74.38
69909;BME280;57190;47.918;8.112;2022-12-11T04:43:07;89904.59;;;-7.02;74.59
69909;BME280;57190;47.918;8.112;2022-12-11T04:45:33;89898.63;;;-7.03;74.93
69909;BME280;57190;47.918;8.112;2022-12-11T04:47:59;89906.41;;;-7.03;75.38
69909;BME280;57190;47.918;8.112;2022-12-11T04:50:25;89907.13;;;-7.09;75.11
69909;BME280;57190;47.918;8.112;2022-12-11T04:52:54;89909.53;;;-7.07;74.24
69909;BME280;57190;47.918;8.112;2022-12-11T04:55:19;89904.38;;;-7.07;74.28
69909;BME280;57190;47.918;8.112;2022-12-11T04:57:45;89902.81;;;-7.02;75.16
69909;BME280;57190;47.918;8.112;2022-12-11T05:00:11;89906.00;;;-7.00;75.36
69909;BME280;57190;47.918;8.112;2022-12-11T05:02:38;89910.22;;;-6.99;74.69
69909;BME280;57190;47.918;8.112;2022-12-11T05:05:05;89908.84;;;-6.95;74.79
69909;BME280;57190;47.918;8.112;2022-12-11T05:07:31;89907.69;;;-6.92;74.20
69909;BME280;57190;47.918;8.112;2022-12-11T05:09:57;89901.25;;;-6.96;75.10
69909;BME280;57190;47.918;8.112;2022-12-11T05:12:22;89903.28;;;-6.91;75.88
69909;BME280;57190;47.918;8.112;2022-12-11T05:14:51;89901.94;;;-6.87;74.81
69909;BME280;57190;47.918;8.112;2022-12-11T05:17:18;89896.13;;;-6.89;76.25
69909;BME280;57190;47.918;8.112;2022-12-11T05:19:46;89901.72;;;-6.86;75.33
69909;BME280;57190;47.918;8.112;2022-12-11T05:22:12;89902.59;;;-6.79;76.35
69909;BME280;57190;47.918;8.112;2022-12-11T05:24:37;89891.66;;;-6.74;74.94
69909;BME280;57190;47.918;8.112;2022-12-11T05:27:03;89896.53;;;-6.64;75.87
69909;BME280;57190;47.918;8.112;2022-12-11T05:29:28;89898.34;;;-6.58;75.39
69909;BME280;57190;47.918;8.112;2022-12-11T05:31:54;89884.19;;;-6.55;75.47
69909;BME280;57190;47.918;8.112;2022-12-11T05:34:19;89899.16;;;-6.57;74.37
69909;BME280;57190;47.918;8.112;2022-12-11T05:36:45;89885.00;;;-6.83;74.60
69909;BME280;57190;47.918;8.112;2022-12-11T05:39:11;89893.16;;;-6.86;75.01
69909;BME280;57190;47.918;8.112;2022-12-11T05:41:37;89886.84;;;-6.77;74.61
69909;BME280;57190;47.918;8.112;2022-12-11T05:44:02;89887.06;;;-6.72;75.50
69909;BME280;57190;47.918;8.112;2022-12-11T05:46:29;89885.75;;;-6.61;74.72
69909;BME280;57190;47.918;8.112;2022-12-11T05:49:00;89889.16;;;-6.60;75.04
69909;BME280;57190;47.918;8.112;2022-12-11T05:51:27;89885.75;;;-6.61;74.74
69909;BME280;57190;47.918;8.112;2022-12-11T05:53:55;89886.31;;;-6.66;74.21
69909;BME280;57190;47.918;8.112;2022-12-11T05:56:24;89890.91;;;-6.68;74.74
69909;BME280;57190;47.918;8.112;2022-12-11T05:58:51;89889.34;;;-6.62;75.35
69909;BME280;57190;47.918;8.112;2022-12-11T06:01:23;89893.94;;;-6.57;74.47
69909;BME280;57190;47.918;8.112;2022-12-11T06:03:49;89886.16;;;-6.57;74.88
69909;BME280;57190;47.918;8.112;2022-12-11T06:06:15;89884.16;;;-6.62;74.89
69909;BME280;57190;47.918;8.112;2022-12-11T06:08:41;89883.91;;;-6.67;75.33
69909;BME280;57190;47.918;8.112;2022-12-11T06:11:07;89886.31;;;-6.66;75.59
69909;BME280;57190;47.918;8.112;2022-12-11T06:13:33;89883.91;;;-6.67;74.60
69909;BME280;57190;47.918;8.112;2022-12-11T06:16:00;89879.94;;;-6.63;75.34
69909;BME280;57190;47.918;8.112;2022-12-11T06:18:26;89886.56;;;-6.60;74.85
69909;BME280;57190;47.918;8.112;2022-12-11T06:20:52;89879.38;;;-6.58;75.50
69909;BME280;57190;47.918;8.112;2022-12-11T06:23:18;89884.75;;;-6.60;75.19
69909;BME280;57190;47.918;8.112;2022-12-11T06:25:44;89883.56;;;-6.64;74.46
69909;BME280;57190;47.918;8.112;2022-12-11T06:28:09;89889.09;;;-6.67;74.94
69909;BME280;57190;47.918;8.112;2022-12-11T06:30:35;89876.69;;;-6.72;75.15
69909;BME280;57190;47.918;8.112;2022-12-11T06:33:01;89862.66;;;-6.84;74.66
69909;BME280;57190;47.918;8.112;2022-12-11T06:35:26;89872.78;;;-6.89;74.60
69909;BME280;57190;47.918;8.112;2022-12-11T06:37:52;89870.94;;;-6.96;74.58
69909;BME280;57190;47.918;8.112;2022-12-11T06:40:18;89878.88;;;-7.04;75.13
69909;BME280;57190;47.918;8.112;2022-12-11T06:42:43;89868.97;;;-7.22;75.00
69909;BME280;57190;47.918;8.112;2022-12-11T06:45:09;89875.97;;;-7.37;75.36
69909;BME280;57190;47.918;8.112;2022-12-11T06:47:35;89869.50;;;-7.48;75.06
69909;BME280;57190;47.918;8.112;2022-12-11T06:50:00;89867.59;;;-7.61;74.48
69909;BME280;57190;47.918;8.112;2022-12-11T06:52:27;89884.38;;;-7.57;75.21
69909;BME280;57190;47.918;8.112;2022-12-11T06:54:53;89872.84;;;-7.54;75.05
69909;BME280;57190;47.918;8.112;2022-12-11T06:57:18;89867.78;;;-7.63;74.94
69909;BME280;57190;47.918;8.112;2022-12-11T06:59:44;89872.97;;;-7.63;73.69
69909;BME280;57190;47.918;8.112;2022-12-11T07:02:13;89879.03;;;-7.70;73.51
69909;BME280;57190;47.918;8.112;2022-12-11T07:04:40;89878.16;;;-7.78;74.47
69909;BME280;57190;47.918;8.112;2022-12-11T07:07:06;89875.78;;;-7.79;74.44
69909;BME280;57190;47.918;8.112;2022-12-11T07:09:32;89872.13;;;-7.85;74.96
69909;BME280;57190;47.918;8.112;2022-12-11T07:11:58;89877.66;;;-7.88;73.97
69909;BME280;57190;47.918;8.112;2022-12-11T07:14:23;89880.53;;;-7.83;74.47
69909;BME280;57190;47.918;8.112;2022-12-11T07:16:49;89873.97;;;-7.79;74.06
69909;BME280;57190;47.918;8.112;2022-12-11T07:19:15;89883.50;;;-7.43;74.08
69909;BME280;57190;47.918;8.112;2022-12-11T07:21:40;89879.81;;;-6.55;71.77
69909;BME280;57190;47.918;8.112;2022-12-11T07:24:06;89881.94;;;-4.93;65.77
69909;BME280;57190;47.918;8.112;2022-12-11T07:26:32;89880.75;;;-4.63;64.02
69909;BME280;57190;47.918;8.112;2022-12-11T07:28:58;89888.13;;;-5.21;65.56
69909;BME280;57190;47.918;8.112;2022-12-11T07:31:26;89892.53;;;-5.14;66.81
69909;BME280;57190;47.918;8.112;2022-12-11T07:33:58;89879.13;;;-3.20;61.77
69909;BME280;57190;47.918;8.112;2022-12-11T07:36:26;89880.16;;;-2.13;57.43
69909;BME280;57190;47.918;8.112;2022-12-11T07:38:52;89886.72;;;-1.66;57.59
69909;BME280;57190;47.918;8.112;2022-12-11T07:41:18;89877.56;;;0.24;52.56
69909;BME280;57190;47.918;8.112;2022-12-11T07:43:44;89884.28;;;2.06;46.91
69909;BME280;57190;47.918;8.112;2022-12-11T07:46:15;89878.63;;;2.14;45.57
69909;BME280;57190;47.918;8.112;2022-12-11T07:48:42;89880.53;;;1.67;46.54
69909;BME280;57190;47.918;8.112;2022-12-11T07:53:34;89890.84;;;0.70;47.18
69909;BME280;57190;47.918;8.112;2022-12-11T07:55:59;89885.09;;;0.85;46.88
69909;BME280;57190;47.918;8.112;2022-12-11T07:58:25;89885.03;;;3.24;44.23
69909;BME280;57190;47.918;8.112;2022-12-11T08:00:50;89877.19;;;6.17;38.32
69909;BME280;57190;47.918;8.112;2022-12-11T08:03:19;89876.03;;;7.11;36.43
69909;BME280;57190;47.918;8.112;2022-12-11T08:05:48;89880.56;;;7.71;35.87
69909;BME280;57190;47.918;8.112;2022-12-11T08:08:14;89886.69;;;7.01;36.18
69909;BME280;57190;47.918;8.112;2022-12-11T08:10:40;89884.78;;;5.62;37.26
69909;BME280;57190;47.918;8.112;2022-12-11T08:13:05;89891.06;;;3.74;39.56
69909;BME280;57190;47.918;8.112;2022-12-11T08:15:31;89887.16;;;4.09;40.65
69909;BME280;57190;47.918;8.112;2022-12-11T08:17:57;89874.09;;;5.26;37.65
69909;BME280;57190;47.918;8.112;2022-12-11T08:20:22;89878.78;;;5.13;37.77
69909;BME280;57190;47.918;8.112;2022-12-11T08:22:48;89875.28;;;4.06;38.14
69909;BME280;57190;47.918;8.112;2022-12-11T08:25:13;89876.50;;;3.39;40.99
69909;BME280;57190;47.918;8.112;2022-12-11T08:27:39;89881.25;;;3.14;41.17
69909;BME280;57190;47.918;8.112;2022-12-11T08:30:05;89875.13;;;3.09;41.62
69909;BME280;57190;47.918;8.112;2022-12-11T08:32:30;89872.47;;;3.31;43.55
69909;BME280;57190;47.918;8.112;2022-12-11T08:34:56;89865.03;;;3.28;42.53
69909;BME280;57190;47.918;8.112;2022-12-11T08:37:21;89875.38;;;2.46;43.40
69909;BME280;57190;47.918;8.112;2022-12-11T08:39:47;89875.41;;;2.68;42.85
69909;BME280;57190;47.918;8.112;2022-12-11T08:42:12;89872.31;;;3.70;40.35
69909;BME280;57190;47.918;8.112;2022-12-11T08:44:38;89878.56;;;3.37;41.34
69909;BME280;57190;47.918;8.112;2022-12-11T08:47:03;89872.75;;;7.90;34.94
69909;BME280;57190;47.918;8.112;2022-12-11T08:49:29;89862.28;;;10.71;30.42
69909;BME280;57190;47.918;8.112;2022-12-11T08:51:54;89858.59;;;10.67;30.20
69909;BME280;57190;47.918;8.112;2022-12-11T08:54:20;89859.06;;;8.12;35.37
69909;BME280;57190;47.918;8.112;2022-12-11T08:56:46;89853.28;;;6.95;37.99
69909;BME280;57190;47.918;8.112;2022-12-11T08:59:12;89861.72;;;8.12;35.96
69909;BME280;57190;47.918;8.112;2022-12-11T09:01:37;89854.97;;;10.05;33.26
69909;BME280;57190;47.918;8.112;2022-12-11T09:04:03;89854.09;;;14.41;27.53
69909;BME280;57190;47.918;8.112;2022-12-11T09:06:29;89865.47;;;17.06;23.81
69909;BME280;57190;47.918;8.112;2022-12-11T09:08:58;89856.28;;;18.11;23.40
69909;BME280;57190;47.918;8.112;2022-12-11T09:11:26;89851.00;;;18.15;22.48
69909;BME280;57190;47.918;8.112;2022-12-11T09:13:52;89853.13;;;17.05;22.88
69909;BME280;57190;47.918;8.112;2022-12-11T09:16:20;89847.38;;;15.83;24.17
69909;BME280;57190;47.918;8.112;2022-12-11T09:18:48;89853.69;;;11.07;27.59
69909;BME280;57190;47.918;8.112;2022-12-11T09:21:16;89858.47;;;7.31;33.49
69909;BME280;57190;47.918;8.112;2022-12-11T09:23:42;89858.03;;;5.48;35.57
69909;BME280;57190;47.918;8.112;2022-12-11T09:26:11;89846.84;;;4.19;38.64
69909;BME280;57190;47.918;8.112;2022-12-11T09:28:38;89853.22;;;4.23;39.46
69909;BME280;57190;47.918;8.112;2022-12-11T09:33:50;89849.56;;;8.75;32.65
69909;BME280;57190;47.918;8.112;2022-12-11T09:36:17;89846.28;;;7.19;33.02
69909;BME280;57190;47.918;8.112;2022-12-11T09:38:43;89847.69;;;5.41;35.23
69909;BME280;57190;47.918;8.112;2022-12-11T09:44:19;89845.44;;;4.06;38.58
69909;BME280;57190;47.918;8.112;2022-12-11T09:46:46;89837.66;;;3.61;39.34
69909;BME280;57190;47.918;8.112;2022-12-11T09:49:40;89840.31;;;2.85;41.09
69909;BME280;57190;47.918;8.112;2022-12-11T09:52:27;89832.63;;;2.56;41.43
69909;BME280;57190;47.918;8.112;2022-12-11T09:54:58;89834.28;;;2.45;42.29
69909;BME280;57190;47.918;8.112;2022-12-11T09:57:43;89824.69;;;2.33;42.21
69909;BME280;57190;47.918;8.112;2022-12-11T10:00:18;89824.31;;;3.41;42.13
69909;BME280;57190;47.918;8.112;2022-12-11T10:05:33;89820.69;;;3.47;41.13
69909;BME280;57190;47.918;8.112;2022-12-11T10:08:10;89815.03;;;3.98;40.30
69909;BME280;57190;47.918;8.112;2022-12-11T10:10:46;89798.56;;;4.71;38.87
69909;BME280;57190;47.918;8.112;2022-12-11T10:18:31;89798.50;;;4.61;38.24
69909;BME280;57190;47.918;8.112;2022-12-11T10:21:00;89796.63;;;3.71;40.47
69909;BME280;57190;47.918;8.112;2022-12-11T10:23:51;89798.63;;;3.58;41.45
69909;BME280;57190;47.918;8.112;2022-12-11T10:26:19;89795.28;;;3.68;40.78
69909;BME280;57190;47.918;8.112;2022-12-11T10:28:45;89797.50;;;2.94;42.42
69909;BME280;57190;47.918;8.112;2022-12-11T10:34:03;89784.50;;;5.55;38.97
69909;BME280;57190;47.918;8.112;2022-12-11T10:36:37;89773.91;;;6.43;35.88
69909;BME280;57190;47.918;8.112;2022-12-11T10:39:20;89762.75;;;5.17;37.41
69909;BME280;57190;47.918;8.112;2022-12-11T10:41:48;89765.81;;;4.72;38.34
69909;BME280;57190;47.918;8.112;2022-12-11T10:44:20;89767.91;;;3.42;40.79
69909;BME280;57190;47.918;8.112;2022-12-11T10:46:59;89769.09;;;2.52;42.73
69909;BME280;57190;47.918;8.112;2022-12-11T10:49:31;89768.63;;;2.55;43.83
69909;BME280;57190;47.918;8.112;2022-12-11T10:51:57;89765.06;;;2.66;44.17
69909;BME280;57190;47.918;8.112;2022-12-11T10:54:38;89768.88;;;2.31;44.31
69909;BME280;57190;47.918;8.112;2022-12-11T10:57:06;89764.63;;;2.08;44.61
69909;BME280;57190;47.918;8.112;2022-12-11T10:59:36;89750.78;;;1.96;44.34
69909;BME280;57190;47.918;8.112;2022-12-11T11:02:04;89756.56;;;1.76;43.58
69909;BME280;57190;47.918;8.112;2022-12-11T11:04:37;89751.16;;;1.48;43.63
69909;BME280;57190;47.918;8.112;2022-12-11T11:07:12;89747.81;;;1.53;44.03
69909;BME280;57190;47.918;8.112;2022-12-11T11:09:38;89754.50;;;1.44;43.84
69909;BME280;57190;47.918;8.112;2022-12-11T11:12:22;89747.59;;;1.20;43.77
69909;BME280;57190;47.918;8.112;2022-12-11T11:15:18;89748.69;;;1.07;44.36
69909;BME280;57190;47.918;8.112;2022-12-11T11:17:50;89752.88;;;0.91;43.81
69909;BME280;57190;47.918;8.112;2022-12-11T11:20:20;89741.91;;;0.94;44.88
69909;BME280;57190;47.918;8.112;2022-12-11T11:22:50;89738.34;;;1.01;44.18
69909;BME280;57190;47.918;8.112;2022-12-11T11:25:21;89734.91;;;1.00;44.46
69909;BME280;57190;47.918;8.112;2022-12-11T11:30:21;89739.81;;;0.97;43.99
69909;BME280;57190;47.918;8.112;2022-12-11T11:32:54;89732.81;;;0.85;43.61
69909;BME280;57190;47.918;8.112;2022-12-11T11:35:26;89727.44;;;0.92;44.65
69909;BME280;57190;47.918;8.112;2022-12-11T11:38:00;89725.84;;;1.25;43.71
69909;BME280;57190;47.918;8.112;2022-12-11T11:40:36;89731.72;;;0.98;44.71
69909;BME280;57190;47.918;8.112;2022-12-11T11:46:37;89731.34;;;0.60;43.88
69909;BME280;57190;47.918;8.112;2022-12-11T11:55:02;89731.81;;;1.03;44.45
69909;BME280;57190;47.918;8.112;2022-12-11T12:00:31;89732.97;;;0.78;44.40
69909;BME280;57190;47.918;8.112;2022-12-11T12:03:13;89722.59;;;0.72;43.76
69909;BME280;57190;47.918;8.112;2022-12-11T12:11:57;89714.38;;;1.31;43.09
69909;BME280;57190;47.918;8.112;2022-12-11T12:17:23;89714.84;;;1.45;43.12
69909;BME280;57190;47.918;8.112;2022-12-11T12:33:00;89718.19;;;1.06;43.86
69909;BME280;57190;47.918;8.112;2022-12-11T12:35:41;89711.03;;;1.19;42.85
69909;BME280;57190;47.918;8.112;2022-12-11T12:38:20;89714.34;;;1.48;43.12
69909;BME280;57190;47.918;8.112;2022-12-11T12:44:10;89716.44;;;1.46;43.31
69909;BME280;57190;47.918;8.112;2022-12-11T12:47:14;89724.47;;;1.22;43.10
69909;BME280;57190;47.918;8.112;2022-12-11T12:49:56;89719.13;;;0.83;43.62
69909;BME280;57190;47.918;8.112;2022-12-11T12:52:38;89716.06;;;0.28;43.70
69909;BME280;57190;47.918;8.112;2022-12-11T12:55:21;89721.16;;;0.35;43.80
69909;BME280;57190;47.918;8.112;2022-12-11T12:58:04;89715.97;;;0.52;43.15
69909;BME280;57190;47.918;8.112;2022-12-11T13:00:39;89718.31;;;0.37;43.24
69909;BME280;57190;47.918;8.112;2022-12-11T13:03:25;89716.44;;;0.20;42.95
69909;BME280;57190;47.918;8.112;2022-12-11T13:06:00;89724.19;;;0.15;43.74
69909;BME280;57190;47.918;8.112;2022-12-11T13:08:49;89709.19;;;-0.02;43.65
69909;BME280;57190;47.918;8.112;2022-12-11T13:11:31;89721.72;;;-0.04;43.78
69909;BME280;57190;47.918;8.112;2022-12-11T13:19:33;89719.50;;;-0.24;45.88
69909;BME280;57190;47.918;8.112;2022-12-11T13:22:20;89714.53;;;0.15;46.27
69909;BME280;57190;47.918;8.112;2022-12-11T13:27:41;89716.34;;;0.44;46.24
69909;BME280;57190;47.918;8.112;2022-12-11T13:33:16;89712.03;;;0.09;46.54
69909;BME280;57190;47.918;8.112;2022-12-11T13:36:25;89717.03;;;0.10;47.13
69909;BME280;57190;47.918;8.112;2022-12-11T13:38:56;89713.97;;;0.02;49.00
69909;BME280;57190;47.918;8.112;2022-12-11T13:41:24;89719.31;;;0.07;49.41
69909;BME280;57190;47.918;8.112;2022-12-11T13:43:54;89719.56;;;0.05;49.65
69909;BME280;57190;47.918;8.112;2022-12-11T13:49:52;89717.19;;;-0.08;49.27
69909;BME280;57190;47.918;8.112;2022-12-11T13:52:23;89724.84;;;-0.19;49.50
69909;BME280;57190;47.918;8.112;2022-12-11T13:54:55;89717.69;;;-0.23;49.58
69909;BME280;57190;47.918;8.112;2022-12-11T13:57:25;89723.72;;;-0.23;49.78
69909;BME280;57190;47.918;8.112;2022-12-11T14:00:21;89730.22;;;-0.37;48.92
69909;BME280;57190;47.918;8.112;2022-12-11T14:02:52;89737.63;;;-0.70;49.83
69909;BME280;57190;47.918;8.112;2022-12-11T14:05:22;89733.88;;;-0.86;50.16
69909;BME280;57190;47.918;8.112;2022-12-11T14:07:51;89735.81;;;-0.81;50.78
69909;BME280;57190;47.918;8.112;2022-12-11T14:10:25;89741.59;;;-0.79;51.48
69909;BME280;57190;47.918;8.112;2022-12-11T14:13:18;89739.56;;;-0.89;53.47
69909;BME280;57190;47.918;8.112;2022-12-11T14:15:46;89750.22;;;-1.26;53.72
69909;BME280;57190;47.918;8.112;2022-12-11T14:18:14;89751.00;;;-1.56;53.92
69909;BME280;57190;47.918;8.112;2022-12-11T14:20:42;89746.28;;;-1.78;54.24
69909;BME280;57190;47.918;8.112;2022-12-11T14:23:19;89754.84;;;-1.89;55.15
69909;BME280;57190;47.918;8.112;2022-12-11T14:28:43;89762.34;;;-2.11;55.02
69909;BME280;57190;47.918;8.112;2022-12-11T14:31:45;89766.13;;;-2.26;55.98
69909;BME280;57190;47.918;8.112;2022-12-11T14:39:12;89764.47;;;-2.64;57.33
69909;BME280;57190;47.918;8.112;2022-12-11T14:41:43;89772.75;;;-2.67;57.96
69909;BME280;57190;47.918;8.112;2022-12-11T14:44:16;89766.56;;;-2.73;58.45
69909;BME280;57190;47.918;8.112;2022-12-11T14:46:45;89769.88;;;-2.84;59.44
69909;BME280;57190;47.918;8.112;2022-12-11T14:49:23;89766.97;;;-2.94;60.42
69909;BME280;57190;47.918;8.112;2022-12-11T14:51:53;89779.25;;;-3.02;60.46